ADDS TAF Data INFO
IDs: Format: Raw Decoded Include METARs

Data at: 0732 UTC 16 Jan 2018

KPKB 160653Z AUTO 26003KT 9SM OVC036 M01/M04 A3036 RMK AO2 SNB36E46 SLP288 P0000 T10111039

KPKB 160547Z 1606/1706 24005KT 6SM -SN OVC015
  FM160800 22005KT 1 1/2SM -SN OVC008
  FM160900 24004KT 2SM -SN OVC008
  TEMPO 1609/1613 3/4SM -SN OVC003
  FM161600 26006KT 3SM -SN OVC015
  FM161900 26006KT P6SM OVC025
  FM162200 28005KT P6SM BKN050
  FM170200 29003KT P6SM SCT025